createdAt,value
2022-08-25T00:02:00.801Z,15.77
2022-08-25T00:04:33.821Z,13.57
2022-08-25T00:07:04.423Z,17.90
2022-08-25T00:09:34.675Z,17.10
2022-08-25T00:12:05.639Z,15.73
2022-08-25T00:14:37.325Z,15.07
2022-08-25T00:17:06.911Z,13.23
2022-08-25T00:19:38.690Z,19.75
2022-08-25T00:22:08.995Z,13.13
2022-08-25T00:24:38.164Z,14.20
2022-08-25T00:27:12.727Z,20.80
2022-08-25T00:29:41.609Z,19.38
2022-08-25T00:32:10.569Z,10.38
2022-08-25T00:34:41.028Z,23.83
2022-08-25T00:37:10.480Z,13.15
2022-08-25T00:39:40.522Z,20.23
2022-08-25T00:42:16.345Z,17.38
2022-08-25T00:44:45.440Z,17.33
2022-08-25T00:47:14.278Z,17.40
2022-08-25T00:49:46.842Z,14.57
2022-08-25T00:52:18.246Z,14.98
2022-08-25T00:54:52.234Z,17.63
2022-08-25T00:57:34.216Z,14.95
2022-08-25T01:00:11.411Z,13.88
2022-08-25T01:02:40.505Z,11.38
2022-08-25T01:05:11.155Z,17.17
2022-08-25T01:10:09.938Z,16.52
2022-08-25T01:12:39.113Z,17.38
2022-08-25T01:15:09.478Z,17.08
2022-08-25T01:17:47.631Z,20.33
2022-08-25T01:20:19.871Z,14.65
2022-08-25T01:22:55.384Z,18.15
2022-08-25T01:25:37.416Z,18.55
2022-08-25T01:28:07.010Z,18.88
2022-08-25T01:30:35.961Z,15.88
2022-08-25T01:33:05.947Z,15.73
2022-08-25T01:35:35.079Z,24.63
2022-08-25T01:38:07.674Z,24.55
2022-08-25T01:40:37.294Z,17.20
2022-08-25T01:43:13.682Z,24.23
2022-08-25T01:45:44.743Z,19.63
2022-08-25T01:48:16.775Z,21.52
2022-08-25T01:50:45.528Z,30.02
2022-08-25T01:53:21.466Z,16.23
2022-08-25T01:56:02.709Z,20.83
2022-08-25T01:58:34.927Z,20.95
2022-08-25T02:01:05.390Z,20.60
2022-08-25T02:03:34.523Z,21.58
2022-08-25T02:06:04.208Z,23.42
2022-08-25T02:08:35.369Z,26.05
2022-08-25T02:11:04.330Z,19.77
2022-08-25T02:13:32.799Z,26.25
2022-08-25T02:16:02.437Z,19.88
2022-08-25T02:18:31.387Z,17.02
2022-08-25T02:21:00.180Z,27.35
2022-08-25T02:23:29.018Z,24.50
2022-08-25T02:25:59.116Z,31.65
2022-08-25T02:28:27.603Z,19.90
2022-08-25T02:31:01.510Z,15.25
2022-08-25T02:33:30.646Z,15.45
2022-08-25T02:36:00.449Z,25.88
2022-08-25T02:38:29.679Z,24.80
2022-08-25T02:41:00.281Z,14.93
2022-08-25T02:45:57.569Z,21.40
2022-08-25T02:48:26.273Z,20.63
2022-08-25T02:50:55.200Z,21.92
2022-08-25T02:53:23.847Z,20.38
2022-08-25T02:55:52.196Z,17.75
2022-08-25T02:58:22.859Z,23.73
2022-08-25T03:00:51.736Z,26.48
2022-08-25T03:03:21.685Z,24.88
2022-08-25T03:05:50.464Z,19.63
2022-08-25T03:08:19.132Z,20.23
2022-08-25T03:10:47.477Z,22.80
2022-08-25T03:13:17.019Z,27.65
2022-08-25T03:15:47.109Z,23.80
2022-08-25T03:18:18.152Z,23.48
2022-08-25T03:20:46.850Z,21.65
2022-08-25T03:23:15.844Z,28.95
2022-08-25T03:26:01.908Z,28.98
2022-08-25T03:28:33.301Z,26.92
2022-08-25T03:31:03.422Z,27.10
2022-08-25T03:33:32.729Z,29.30
2022-08-25T03:36:01.526Z,32.08
2022-08-25T03:38:30.352Z,25.33
2022-08-25T03:40:59.010Z,30.23
2022-08-25T03:43:27.413Z,26.20
2022-08-25T03:45:56.162Z,23.33
2022-08-25T03:48:26.356Z,23.40
2022-08-25T03:50:55.516Z,36.15
2022-08-25T03:53:24.186Z,25.48
2022-08-25T03:55:52.572Z,33.58
2022-08-25T03:58:21.286Z,30.15
2022-08-25T04:00:50.043Z,24.83
2022-08-25T04:03:19.548Z,27.98
2022-08-25T04:05:49.676Z,37.17
2022-08-25T04:08:19.295Z,38.97
2022-08-25T04:10:48.836Z,27.98
2022-08-25T04:13:18.748Z,26.27
2022-08-25T04:15:47.462Z,37.70
2022-08-25T04:18:16.392Z,43.58
2022-08-25T04:20:46.908Z,33.97
2022-08-25T04:23:17.246Z,18.60
2022-08-25T04:25:46.380Z,22.85
2022-08-25T04:28:15.085Z,25.93
2022-08-25T04:30:46.404Z,41.75
2022-08-25T04:33:17.855Z,25.25
2022-08-25T04:35:49.067Z,32.78
2022-08-25T04:38:19.357Z,34.90
2022-08-25T04:40:47.678Z,28.35
2022-08-25T04:43:16.407Z,36.65
2022-08-25T04:45:45.208Z,46.30
2022-08-25T04:48:13.932Z,38.30
2022-08-25T04:50:42.655Z,35.85
2022-08-25T04:53:11.355Z,37.30
2022-08-25T04:55:43.265Z,43.05
2022-08-25T04:58:14.692Z,36.28
2022-08-25T05:00:46.853Z,39.15
2022-08-25T05:03:15.762Z,32.25
2022-08-25T05:05:44.626Z,31.60
2022-08-25T05:08:13.363Z,44.38
2022-08-25T05:10:43.291Z,36.05
2022-08-25T05:13:12.617Z,48.78
2022-08-25T05:15:53.494Z,49.78
2022-08-25T05:18:24.178Z,36.22
2022-08-25T05:20:55.050Z,39.80
2022-08-25T05:23:24.743Z,51.65
2022-08-25T05:25:54.709Z,33.90
2022-08-25T05:28:23.584Z,34.05
2022-08-25T05:30:52.346Z,35.05
2022-08-25T05:33:21.178Z,48.20
2022-08-25T05:35:49.866Z,43.50
2022-08-25T05:38:20.112Z,33.03
2022-08-25T05:40:48.382Z,39.88
2022-08-25T05:43:18.561Z,44.55
2022-08-25T05:48:16.279Z,42.13
2022-08-25T05:50:52.834Z,40.50
2022-08-25T05:53:21.650Z,46.70
2022-08-25T05:55:50.861Z,42.85
2022-08-25T05:58:21.432Z,49.55
2022-08-25T06:00:50.142Z,38.05
2022-08-25T06:03:18.308Z,39.38
2022-08-25T06:05:47.368Z,38.53
2022-08-25T06:08:17.183Z,43.90
2022-08-25T06:10:45.628Z,40.38
2022-08-25T06:13:14.505Z,33.83
2022-08-25T06:15:44.510Z,43.42
2022-08-25T06:18:15.001Z,49.90
2022-08-25T06:20:43.762Z,32.25
2022-08-25T06:23:13.069Z,42.13
2022-08-25T06:25:41.693Z,44.30
2022-08-25T06:28:10.458Z,44.10
2022-08-25T06:30:40.549Z,28.85
2022-08-25T06:33:10.660Z,33.70
2022-08-25T06:35:42.844Z,35.13
2022-08-25T06:38:14.955Z,37.63
2022-08-25T06:40:43.322Z,41.63
2022-08-25T06:43:12.046Z,45.20
2022-08-25T06:48:12.386Z,42.00
2022-08-25T06:50:41.934Z,43.75
2022-08-25T06:53:10.707Z,49.88
2022-08-25T06:55:39.475Z,47.20
2022-08-25T06:58:11.116Z,37.80
2022-08-25T07:00:40.028Z,41.60
2022-08-25T07:03:09.611Z,35.28
2022-08-25T07:08:12.902Z,40.05
2022-08-25T07:10:41.299Z,38.35
2022-08-25T07:13:15.823Z,43.10
2022-08-25T07:15:45.275Z,36.45
2022-08-25T07:18:15.759Z,34.95
2022-08-25T07:20:45.920Z,43.90
2022-08-25T07:23:14.640Z,40.13
2022-08-25T07:25:43.031Z,37.83
2022-08-25T07:28:12.240Z,35.67
2022-08-25T07:30:41.021Z,34.43
2022-08-25T07:33:11.479Z,33.88
2022-08-25T07:35:39.597Z,43.35
2022-08-25T07:38:19.738Z,43.17
2022-08-25T07:40:56.989Z,34.47
2022-08-25T07:43:25.845Z,39.30
2022-08-25T07:45:54.987Z,52.57
2022-08-25T07:48:23.681Z,34.80
2022-08-25T07:50:52.416Z,38.17
2022-08-25T07:53:22.716Z,48.65
2022-08-25T07:55:51.324Z,40.03
2022-08-25T07:58:22.567Z,38.72
2022-08-25T08:00:53.397Z,42.33
2022-08-25T08:03:42.073Z,40.67
2022-08-25T08:09:38.310Z,41.75
2022-08-25T08:12:08.304Z,29.17
2022-08-25T08:14:37.316Z,39.38
2022-08-25T08:17:14.446Z,40.90
2022-08-25T08:19:45.495Z,36.47
2022-08-25T08:22:16.207Z,43.97
2022-08-25T08:24:56.291Z,42.85
2022-08-25T08:27:25.857Z,58.03
2022-08-25T08:29:54.845Z,45.00
2022-08-25T08:32:35.446Z,42.42
2022-08-25T08:35:12.137Z,40.60
2022-08-25T08:37:42.292Z,33.38
2022-08-25T08:40:14.449Z,39.67
2022-08-25T08:42:53.903Z,46.42
2022-08-25T08:48:10.113Z,28.13
2022-08-25T08:50:44.813Z,39.00
2022-08-25T08:53:18.220Z,42.75
2022-08-25T08:55:52.837Z,33.22
2022-08-25T08:58:26.576Z,35.83
2022-08-25T09:00:58.338Z,30.88
2022-08-25T09:03:33.266Z,35.15
2022-08-25T09:06:04.499Z,41.38
2022-08-25T09:08:36.117Z,36.33
2022-08-25T09:11:16.274Z,51.05
2022-08-25T09:13:59.478Z,50.70
2022-08-25T09:16:52.637Z,45.13
2022-08-25T09:19:33.385Z,39.90
2022-08-25T09:22:34.847Z,44.47
2022-08-25T09:25:09.052Z,29.23
2022-08-25T09:27:42.823Z,36.38
2022-08-25T09:30:14.105Z,38.25
2022-08-25T09:32:49.029Z,42.47
2022-08-25T09:35:23.164Z,41.00
2022-08-25T09:37:59.206Z,35.95
2022-08-25T09:40:29.650Z,32.22
2022-08-25T09:43:01.852Z,41.92
2022-08-25T09:45:36.316Z,44.92
2022-08-25T09:48:21.836Z,32.67
2022-08-25T09:50:52.343Z,28.80
2022-08-25T09:53:21.857Z,26.50
2022-08-25T09:56:00.190Z,30.02
2022-08-25T09:58:30.995Z,43.60
2022-08-25T10:01:08.845Z,28.65
2022-08-25T10:03:37.876Z,26.58
2022-08-25T10:06:13.203Z,24.15
2022-08-25T10:08:56.269Z,30.75
2022-08-25T10:11:35.125Z,17.50
2022-08-25T10:14:08.078Z,17.63
2022-08-25T10:16:37.057Z,14.55
2022-08-25T10:19:08.733Z,15.75
2022-08-25T10:21:39.346Z,22.52
2022-08-25T10:24:09.879Z,20.05
2022-08-25T10:26:50.282Z,22.05
2022-08-25T10:29:32.490Z,21.35
2022-08-25T10:32:11.478Z,18.80
2022-08-25T10:34:51.653Z,10.35
2022-08-25T10:37:32.811Z,16.48
2022-08-25T10:40:11.160Z,8.18
2022-08-25T10:42:49.685Z,18.70
2022-08-25T10:45:42.040Z,9.80
2022-08-25T10:48:35.936Z,23.13
2022-08-25T10:51:18.122Z,15.57
2022-08-25T10:53:57.540Z,13.77
2022-08-25T10:56:29.168Z,15.43
2022-08-25T10:59:10.816Z,11.52
2022-08-25T11:01:53.377Z,14.20
2022-08-25T11:04:26.313Z,19.30
2022-08-25T11:07:00.570Z,14.75
2022-08-25T11:09:32.486Z,13.93
2022-08-25T11:12:08.902Z,14.25
2022-08-25T11:14:40.375Z,5.85
2022-08-25T11:17:13.681Z,11.95
2022-08-25T11:19:47.374Z,16.60
2022-08-25T11:22:20.820Z,7.90
2022-08-25T11:24:58.214Z,10.77
2022-08-25T11:27:35.512Z,11.63
2022-08-25T11:30:09.053Z,15.05
2022-08-25T11:32:40.759Z,10.65
2022-08-25T11:35:13.189Z,10.75
2022-08-25T11:37:47.127Z,13.70
2022-08-25T11:40:37.981Z,13.45
2022-08-25T11:43:16.008Z,8.52
2022-08-25T11:45:55.791Z,9.13
2022-08-25T11:48:36.910Z,10.80
2022-08-25T11:51:07.602Z,6.18
2022-08-25T11:53:42.235Z,12.85
2022-08-25T11:56:13.829Z,13.05
2022-08-25T11:58:46.432Z,8.85
2022-08-25T12:01:52.171Z,16.58
2022-08-25T12:04:44.151Z,10.57
2022-08-25T12:07:21.966Z,9.55
2022-08-25T12:10:58.974Z,14.32
2022-08-25T12:13:41.399Z,7.30
2022-08-25T12:16:49.412Z,9.88
2022-08-25T12:19:52.744Z,11.55
2022-08-25T12:22:58.461Z,11.48
2022-08-25T12:25:36.750Z,14.57
2022-08-25T12:28:11.514Z,13.85
2022-08-25T12:30:45.839Z,6.95
2022-08-25T12:33:21.821Z,11.40
2022-08-25T12:35:58.525Z,18.03
2022-08-25T12:38:33.082Z,7.30
2022-08-25T12:41:08.290Z,13.00
2022-08-25T12:43:39.462Z,7.15
2022-08-25T12:46:36.770Z,12.02
2022-08-25T12:49:13.105Z,7.93
2022-08-25T12:51:54.679Z,13.27
2022-08-25T12:54:39.593Z,7.45
2022-08-25T12:57:25.155Z,11.02
2022-08-25T13:00:16.885Z,6.82
2022-08-25T13:06:14.183Z,10.75
2022-08-25T13:09:19.961Z,7.90
2022-08-25T13:11:54.716Z,23.13
2022-08-25T13:14:35.108Z,12.15
2022-08-25T13:17:07.368Z,15.88
2022-08-25T13:19:38.688Z,8.82
2022-08-25T13:22:16.405Z,7.30
2022-08-25T13:24:50.454Z,13.88
2022-08-25T13:27:23.812Z,9.75
2022-08-25T13:29:54.324Z,10.85
2022-08-25T13:32:32.134Z,11.07
2022-08-25T13:35:14.186Z,8.63
2022-08-25T13:37:42.193Z,12.65
2022-08-25T13:40:15.808Z,9.88
2022-08-25T13:42:55.934Z,11.07
2022-08-25T13:45:27.815Z,16.85
2022-08-25T13:47:58.149Z,12.40
2022-08-25T13:50:35.804Z,12.30
2022-08-25T13:53:11.367Z,11.30
2022-08-25T13:55:50.834Z,15.05
2022-08-25T13:58:44.975Z,12.63
2022-08-25T14:01:22.355Z,13.38
2022-08-25T14:04:27.474Z,9.25
2022-08-25T14:07:26.637Z,11.07
2022-08-25T14:10:05.253Z,10.95
2022-08-25T14:12:37.730Z,12.43
2022-08-25T14:15:12.916Z,12.32
2022-08-25T14:17:44.257Z,10.82
2022-08-25T14:20:27.399Z,10.45
2022-08-25T14:22:58.312Z,6.65
2022-08-25T14:25:30.563Z,10.00
2022-08-25T14:28:16.479Z,10.75
2022-08-25T14:30:51.660Z,5.72
2022-08-25T14:33:22.369Z,8.88
2022-08-25T14:35:54.334Z,11.45
2022-08-25T14:38:24.198Z,11.77
2022-08-25T14:40:53.657Z,5.60
2022-08-25T14:43:24.030Z,11.77
2022-08-25T14:46:02.915Z,8.20
2022-08-25T14:48:34.474Z,9.90
2022-08-25T14:51:06.915Z,7.88
2022-08-25T14:53:35.788Z,5.90
2022-08-25T14:56:06.945Z,6.25
2022-08-25T14:58:48.410Z,14.68
2022-08-25T15:01:28.745Z,15.38
2022-08-25T15:04:03.076Z,7.03
2022-08-25T15:06:32.257Z,17.80
2022-08-25T15:09:11.063Z,6.25
2022-08-25T15:11:41.925Z,12.90
2022-08-25T15:14:12.102Z,13.77
2022-08-25T15:16:45.298Z,7.30
2022-08-25T15:19:16.572Z,16.98
2022-08-25T15:21:46.992Z,6.45
2022-08-25T15:24:17.394Z,8.88
2022-08-25T15:29:23.447Z,7.88
2022-08-25T15:31:53.308Z,12.70
2022-08-25T15:34:22.079Z,7.00
2022-08-25T15:36:51.227Z,8.85
2022-08-25T15:39:20.116Z,7.28
2022-08-25T15:41:49.318Z,7.57
2022-08-25T15:44:18.342Z,9.85
2022-08-25T15:46:49.853Z,6.23
2022-08-25T15:49:23.512Z,6.47
2022-08-25T15:51:54.752Z,5.53
2022-08-25T15:54:26.725Z,6.70
2022-08-25T15:56:56.720Z,12.68
2022-08-25T15:59:25.881Z,9.18
2022-08-25T16:01:56.671Z,6.18
2022-08-25T16:04:28.935Z,4.88
2022-08-25T16:06:58.750Z,9.52
2022-08-25T16:09:28.203Z,12.93
2022-08-25T16:12:04.014Z,8.52
2022-08-25T16:14:35.732Z,9.68
2022-08-25T16:17:04.528Z,9.02
2022-08-25T16:19:35.787Z,9.52
2022-08-25T16:22:09.022Z,12.35
2022-08-25T16:24:42.030Z,12.23
2022-08-25T16:27:12.168Z,7.45
2022-08-25T16:29:41.969Z,12.30
2022-08-25T16:32:11.409Z,8.70
2022-08-25T16:34:44.223Z,11.18
2022-08-25T16:37:13.666Z,12.35
2022-08-25T16:42:15.358Z,8.88
2022-08-25T16:44:44.941Z,5.38
2022-08-25T16:47:14.462Z,12.57
2022-08-25T16:49:48.386Z,12.32
2022-08-25T16:52:35.356Z,10.30
2022-08-25T16:55:16.824Z,15.52
2022-08-25T16:57:47.437Z,11.57
2022-08-25T17:00:19.170Z,5.13
2022-08-25T17:02:48.727Z,8.20
2022-08-25T17:05:19.271Z,10.30
2022-08-25T17:08:08.788Z,11.98
2022-08-25T17:10:38.259Z,8.60
2022-08-25T17:13:07.543Z,7.50
2022-08-25T17:15:36.518Z,7.25
2022-08-25T17:18:05.490Z,11.63
2022-08-25T17:20:36.590Z,13.85
2022-08-25T17:23:11.987Z,10.65
2022-08-25T17:25:43.252Z,12.50
2022-08-25T17:28:13.105Z,9.98
2022-08-25T17:30:43.570Z,10.13
2022-08-25T17:33:14.237Z,12.60
2022-08-25T17:35:48.634Z,5.88
2022-08-25T17:38:19.954Z,12.73
2022-08-25T17:40:49.454Z,10.38
2022-08-25T17:43:18.850Z,6.93
2022-08-25T17:45:48.539Z,12.93
2022-08-25T17:48:18.123Z,14.75
2022-08-25T17:50:49.436Z,18.42
2022-08-25T17:53:19.410Z,8.10
2022-08-25T17:55:48.223Z,10.38
2022-08-25T17:58:18.416Z,12.13
2022-08-25T18:00:47.260Z,8.93
2022-08-25T18:03:17.173Z,16.85
2022-08-25T18:05:46.276Z,12.05
2022-08-25T18:08:18.340Z,20.02
2022-08-25T18:10:47.929Z,9.52
2022-08-25T18:13:16.897Z,13.30
2022-08-25T18:15:46.491Z,8.25
2022-08-25T18:18:15.392Z,9.90
2022-08-25T18:20:46.717Z,16.98
2022-08-25T18:23:17.256Z,11.98
2022-08-25T18:25:45.703Z,14.65
2022-08-25T18:28:16.635Z,23.35
2022-08-25T18:30:46.652Z,12.15
2022-08-25T18:33:16.016Z,34.28
2022-08-25T18:35:44.746Z,14.90
2022-08-25T18:38:31.476Z,8.77
2022-08-25T18:41:04.883Z,14.00
2022-08-25T18:43:35.163Z,12.05
2022-08-25T18:48:34.625Z,8.77
2022-08-25T18:51:03.491Z,13.32
2022-08-25T18:53:37.352Z,25.00
2022-08-25T18:56:20.031Z,13.45
2022-08-25T19:01:19.272Z,13.13
2022-08-25T19:03:48.141Z,11.75
2022-08-25T19:06:17.179Z,9.77
2022-08-25T19:08:48.678Z,10.82
2022-08-25T19:11:22.241Z,12.37
2022-08-25T19:13:51.261Z,14.07
2022-08-25T19:16:31.976Z,7.93
2022-08-25T19:19:04.303Z,20.98
2022-08-25T19:21:35.577Z,14.82
2022-08-25T19:24:04.695Z,10.77
2022-08-25T19:26:37.122Z,10.40
2022-08-25T19:29:08.931Z,11.07
2022-08-25T19:31:38.623Z,10.70
2022-08-25T19:34:09.398Z,14.13
2022-08-25T19:36:38.698Z,25.50
2022-08-25T19:39:09.789Z,14.15
2022-08-25T19:41:40.342Z,14.18
2022-08-25T19:44:10.827Z,18.67
2022-08-25T19:46:41.739Z,8.45
2022-08-25T19:49:15.276Z,13.98
2022-08-25T19:51:46.200Z,13.57
2022-08-25T19:54:16.361Z,14.68
2022-08-25T19:59:25.446Z,8.60
2022-08-25T20:01:54.712Z,17.50
2022-08-25T20:04:24.108Z,7.35
2022-08-25T20:06:56.631Z,9.75
2022-08-25T20:09:39.584Z,12.98
2022-08-25T20:12:12.309Z,13.25
2022-08-25T20:14:41.432Z,10.05
2022-08-25T20:17:23.264Z,12.90
2022-08-25T20:19:54.395Z,10.93
2022-08-25T20:22:26.605Z,15.70
2022-08-25T20:24:59.448Z,10.75
2022-08-25T20:27:33.790Z,12.50
2022-08-25T20:30:03.243Z,14.85
2022-08-25T20:32:33.280Z,17.50
2022-08-25T20:35:02.254Z,13.07
2022-08-25T20:37:30.985Z,16.02
2022-08-25T20:39:59.842Z,19.42
2022-08-25T20:42:30.125Z,14.40
2022-08-25T20:44:59.132Z,10.70
2022-08-25T20:47:27.844Z,11.25
2022-08-25T20:49:56.527Z,14.68
2022-08-25T20:52:25.254Z,11.73
2022-08-25T20:54:55.238Z,9.27
2022-08-25T20:57:26.024Z,12.40
2022-08-25T20:59:58.128Z,12.00
2022-08-25T21:02:28.590Z,19.92
2022-08-25T21:04:57.258Z,16.80
2022-08-25T21:07:26.252Z,16.02
2022-08-25T21:09:56.880Z,17.30
2022-08-25T21:12:25.657Z,12.38
2022-08-25T21:14:57.023Z,12.13
2022-08-25T21:19:54.106Z,14.02
2022-08-25T21:22:23.215Z,19.10
2022-08-25T21:24:52.495Z,16.25
2022-08-25T21:27:21.355Z,16.60
2022-08-25T21:29:54.585Z,16.92
2022-08-25T21:32:25.869Z,9.88
2022-08-25T21:34:56.283Z,14.25
2022-08-25T21:37:26.163Z,10.55
2022-08-25T21:39:55.500Z,9.85
2022-08-25T21:42:25.135Z,13.07
2022-08-25T21:44:54.122Z,14.07
2022-08-25T21:47:23.399Z,17.02
2022-08-25T21:49:53.535Z,11.98
2022-08-25T21:52:22.556Z,17.63
2022-08-25T21:54:53.792Z,13.73
2022-08-25T21:57:23.550Z,6.47
2022-08-25T21:59:53.180Z,7.85
2022-08-25T22:02:23.338Z,11.87
2022-08-25T22:04:54.493Z,16.48
2022-08-25T22:07:24.495Z,20.50
2022-08-25T22:09:54.711Z,12.07
2022-08-25T22:14:54.041Z,18.30
2022-08-25T22:17:24.412Z,15.35
2022-08-25T22:19:55.897Z,13.07
2022-08-25T22:22:25.184Z,10.70
2022-08-25T22:24:55.962Z,14.20
2022-08-25T22:27:25.475Z,15.93
2022-08-25T22:29:54.203Z,12.10
2022-08-25T22:32:22.937Z,18.98
2022-08-25T22:34:51.319Z,13.57
2022-08-25T22:37:21.412Z,19.65
2022-08-25T22:42:18.994Z,12.07
2022-08-25T22:44:55.154Z,17.00
2022-08-25T22:47:23.919Z,20.33
2022-08-25T22:49:55.769Z,11.45
2022-08-25T22:52:33.185Z,14.95
2022-08-25T22:55:02.901Z,20.25
2022-08-25T22:57:31.599Z,16.02
2022-08-25T23:00:00.291Z,18.10
2022-08-25T23:02:30.457Z,14.48
2022-08-25T23:05:00.901Z,11.77
2022-08-25T23:07:31.391Z,12.25
2022-08-25T23:10:02.982Z,10.32
2022-08-25T23:12:31.672Z,26.17
2022-08-25T23:15:01.778Z,22.75
2022-08-25T23:17:31.722Z,13.52
2022-08-25T23:20:20.403Z,10.70
2022-08-25T23:22:50.415Z,13.23
2022-08-25T23:25:22.593Z,12.30
2022-08-25T23:27:52.250Z,15.15
2022-08-25T23:30:21.514Z,15.05
2022-08-25T23:32:50.282Z,8.57
2022-08-25T23:35:19.373Z,13.80
2022-08-25T23:37:48.471Z,16.42
2022-08-25T23:40:21.336Z,15.07
2022-08-25T23:42:51.313Z,16.85
2022-08-25T23:45:20.047Z,12.73
2022-08-25T23:47:49.597Z,14.48
2022-08-25T23:50:18.636Z,8.70
2022-08-25T23:52:47.610Z,20.98
2022-08-25T23:55:16.442Z,14.98
2022-08-25T23:57:46.730Z,10.32
